sensor_id;sensor_type;location;lat;lon;timestamp;P1;durP1;ratioP1;P2;durP2;ratioP2
24483;SDS011;12643;51.620;7.548;2023-05-31T00:01:35;13.40;;;10.27;;
24483;SDS011;12643;51.620;7.548;2023-05-31T00:04:05;13.32;;;10.63;;
24483;SDS011;12643;51.620;7.548;2023-05-31T00:06:36;14.93;;;10.88;;
24483;SDS011;12643;51.620;7.548;2023-05-31T00:09:05;11.85;;;10.30;;
24483;SDS011;12643;51.620;7.548;2023-05-31T00:11:34;14.75;;;10.20;;
24483;SDS011;12643;51.620;7.548;2023-05-31T00:14:02;16.60;;;10.48;;
24483;SDS011;12643;51.620;7.548;2023-05-31T00:16:30;11.65;;;9.75;;
24483;SDS011;12643;51.620;7.548;2023-05-31T00:18:58;12.02;;;10.65;;
24483;SDS011;12643;51.620;7.548;2023-05-31T00:21:28;13.73;;;10.27;;
24483;SDS011;12643;51.620;7.548;2023-05-31T00:23:56;14.20;;;10.95;;
24483;SDS011;12643;51.620;7.548;2023-05-31T00:26:24;12.48;;;10.20;;
24483;SDS011;12643;51.620;7.548;2023-05-31T00:28:53;13.77;;;10.75;;
24483;SDS011;12643;51.620;7.548;2023-05-31T00:31:22;12.32;;;10.07;;
24483;SDS011;12643;51.620;7.548;2023-05-31T00:33:54;13.13;;;10.32;;
24483;SDS011;12643;51.620;7.548;2023-05-31T00:36:23;13.60;;;9.77;;
24483;SDS011;12643;51.620;7.548;2023-05-31T00:38:59;15.90;;;9.80;;
24483;SDS011;12643;51.620;7.548;2023-05-31T00:41:29;11.18;;;9.65;;
24483;SDS011;12643;51.620;7.548;2023-05-31T00:43:57;11.95;;;9.48;;
24483;SDS011;12643;51.620;7.548;2023-05-31T00:46:26;10.80;;;9.43;;
24483;SDS011;12643;51.620;7.548;2023-05-31T00:48:59;12.57;;;9.68;;
24483;SDS011;12643;51.620;7.548;2023-05-31T00:51:28;13.40;;;9.25;;
24483;SDS011;12643;51.620;7.548;2023-05-31T00:53:59;11.10;;;9.43;;
24483;SDS011;12643;51.620;7.548;2023-05-31T00:56:28;10.55;;;9.32;;
24483;SDS011;12643;51.620;7.548;2023-05-31T00:58:56;11.30;;;9.63;;
24483;SDS011;12643;51.620;7.548;2023-05-31T01:01:26;12.50;;;9.43;;
24483;SDS011;12643;51.620;7.548;2023-05-31T01:03:59;12.15;;;8.80;;
24483;SDS011;12643;51.620;7.548;2023-05-31T01:06:27;13.48;;;9.60;;
24483;SDS011;12643;51.620;7.548;2023-05-31T01:08:59;10.70;;;8.65;;
24483;SDS011;12643;51.620;7.548;2023-05-31T01:11:33;12.25;;;9.55;;
24483;SDS011;12643;51.620;7.548;2023-05-31T01:14:21;15.23;;;9.50;;
24483;SDS011;12643;51.620;7.548;2023-05-31T01:16:57;11.45;;;9.60;;
24483;SDS011;12643;51.620;7.548;2023-05-31T01:19:36;12.20;;;10.07;;
24483;SDS011;12643;51.620;7.548;2023-05-31T01:22:16;9.98;;;8.98;;
24483;SDS011;12643;51.620;7.548;2023-05-31T01:25:02;12.40;;;9.32;;
24483;SDS011;12643;51.620;7.548;2023-05-31T01:27:42;10.45;;;8.57;;
24483;SDS011;12643;51.620;7.548;2023-05-31T01:30:14;10.98;;;9.60;;
24483;SDS011;12643;51.620;7.548;2023-05-31T01:32:45;12.23;;;9.52;;
24483;SDS011;12643;51.620;7.548;2023-05-31T01:35:14;10.55;;;8.45;;
24483;SDS011;12643;51.620;7.548;2023-05-31T01:37:43;12.57;;;9.75;;
24483;SDS011;12643;51.620;7.548;2023-05-31T01:42:44;11.95;;;9.77;;
24483;SDS011;12643;51.620;7.548;2023-05-31T01:45:13;10.63;;;9.20;;
24483;SDS011;12643;51.620;7.548;2023-05-31T01:47:42;10.25;;;9.25;;
24483;SDS011;12643;51.620;7.548;2023-05-31T01:50:15;11.30;;;8.55;;
24483;SDS011;12643;51.620;7.548;2023-05-31T01:52:49;14.80;;;8.90;;
24483;SDS011;12643;51.620;7.548;2023-05-31T01:55:17;12.77;;;9.40;;
24483;SDS011;12643;51.620;7.548;2023-05-31T01:57:47;11.60;;;8.57;;
24483;SDS011;12643;51.620;7.548;2023-05-31T02:00:16;14.82;;;10.07;;
24483;SDS011;12643;51.620;7.548;2023-05-31T02:02:46;10.93;;;8.38;;
24483;SDS011;12643;51.620;7.548;2023-05-31T02:05:15;10.45;;;8.77;;
24483;SDS011;12643;51.620;7.548;2023-05-31T02:07:44;11.93;;;8.77;;
24483;SDS011;12643;51.620;7.548;2023-05-31T02:10:14;13.73;;;9.20;;
24483;SDS011;12643;51.620;7.548;2023-05-31T02:12:42;13.20;;;9.73;;
24483;SDS011;12643;51.620;7.548;2023-05-31T02:15:13;11.30;;;9.70;;
24483;SDS011;12643;51.620;7.548;2023-05-31T02:17:45;12.27;;;9.25;;
24483;SDS011;12643;51.620;7.548;2023-05-31T02:20:20;12.63;;;10.23;;
24483;SDS011;12643;51.620;7.548;2023-05-31T02:22:51;15.90;;;10.63;;
24483;SDS011;12643;51.620;7.548;2023-05-31T02:25:20;12.93;;;10.77;;
24483;SDS011;12643;51.620;7.548;2023-05-31T02:27:49;16.50;;;11.00;;
24483;SDS011;12643;51.620;7.548;2023-05-31T02:30:18;15.07;;;11.30;;
24483;SDS011;12643;51.620;7.548;2023-05-31T02:32:46;14.10;;;11.02;;
24483;SDS011;12643;51.620;7.548;2023-05-31T02:35:14;13.98;;;11.38;;
24483;SDS011;12643;51.620;7.548;2023-05-31T02:37:44;15.38;;;11.60;;
24483;SDS011;12643;51.620;7.548;2023-05-31T02:40:12;17.50;;;11.88;;
24483;SDS011;12643;51.620;7.548;2023-05-31T02:42:45;15.07;;;11.77;;
24483;SDS011;12643;51.620;7.548;2023-05-31T02:45:14;16.88;;;11.43;;
24483;SDS011;12643;51.620;7.548;2023-05-31T02:47:43;13.80;;;11.98;;
24483;SDS011;12643;51.620;7.548;2023-05-31T02:50:12;17.55;;;11.82;;
24483;SDS011;12643;51.620;7.548;2023-05-31T02:52:40;14.50;;;11.68;;
24483;SDS011;12643;51.620;7.548;2023-05-31T02:55:09;16.02;;;12.57;;
24483;SDS011;12643;51.620;7.548;2023-05-31T02:57:37;12.32;;;10.00;;
24483;SDS011;12643;51.620;7.548;2023-05-31T03:00:06;13.18;;;10.80;;
24483;SDS011;12643;51.620;7.548;2023-05-31T03:05:06;12.85;;;9.63;;
24483;SDS011;12643;51.620;7.548;2023-05-31T03:07:35;14.77;;;10.52;;
24483;SDS011;12643;51.620;7.548;2023-05-31T03:10:04;12.52;;;9.70;;
24483;SDS011;12643;51.620;7.548;2023-05-31T03:12:34;20.35;;;11.63;;
24483;SDS011;12643;51.620;7.548;2023-05-31T03:15:02;15.63;;;11.65;;
24483;SDS011;12643;51.620;7.548;2023-05-31T03:17:30;12.57;;;9.85;;
24483;SDS011;12643;51.620;7.548;2023-05-31T03:19:59;14.18;;;10.05;;
24483;SDS011;12643;51.620;7.548;2023-05-31T03:22:35;12.48;;;10.30;;
24483;SDS011;12643;51.620;7.548;2023-05-31T03:25:04;15.30;;;11.40;;
24483;SDS011;12643;51.620;7.548;2023-05-31T03:27:35;16.05;;;11.70;;
24483;SDS011;12643;51.620;7.548;2023-05-31T03:30:03;15.48;;;11.82;;
24483;SDS011;12643;51.620;7.548;2023-05-31T03:32:33;14.10;;;11.73;;
24483;SDS011;12643;51.620;7.548;2023-05-31T03:35:01;21.27;;;12.80;;
24483;SDS011;12643;51.620;7.548;2023-05-31T03:37:29;14.32;;;11.38;;
24483;SDS011;12643;51.620;7.548;2023-05-31T03:39:59;14.13;;;10.50;;
24483;SDS011;12643;51.620;7.548;2023-05-31T03:42:27;13.52;;;9.95;;
24483;SDS011;12643;51.620;7.548;2023-05-31T03:44:58;14.68;;;10.95;;
24483;SDS011;12643;51.620;7.548;2023-05-31T03:47:25;14.63;;;11.45;;
24483;SDS011;12643;51.620;7.548;2023-05-31T03:49:56;14.07;;;10.60;;
24483;SDS011;12643;51.620;7.548;2023-05-31T03:52:27;12.73;;;10.45;;
24483;SDS011;12643;51.620;7.548;2023-05-31T03:54:56;14.07;;;9.68;;
24483;SDS011;12643;51.620;7.548;2023-05-31T03:57:25;12.32;;;9.80;;
24483;SDS011;12643;51.620;7.548;2023-05-31T03:59:53;11.60;;;9.15;;
24483;SDS011;12643;51.620;7.548;2023-05-31T04:02:21;12.30;;;10.00;;
24483;SDS011;12643;51.620;7.548;2023-05-31T04:04:50;12.55;;;10.50;;
24483;SDS011;12643;51.620;7.548;2023-05-31T04:07:19;12.80;;;10.50;;
24483;SDS011;12643;51.620;7.548;2023-05-31T04:09:47;17.48;;;11.40;;
24483;SDS011;12643;51.620;7.548;2023-05-31T04:12:15;15.82;;;11.82;;
24483;SDS011;12643;51.620;7.548;2023-05-31T04:14:45;14.50;;;12.05;;
24483;SDS011;12643;51.620;7.548;2023-05-31T04:17:13;14.18;;;11.88;;
24483;SDS011;12643;51.620;7.548;2023-05-31T04:19:42;14.38;;;11.30;;
24483;SDS011;12643;51.620;7.548;2023-05-31T04:22:10;16.65;;;12.73;;
24483;SDS011;12643;51.620;7.548;2023-05-31T04:24:39;19.42;;;12.77;;
24483;SDS011;12643;51.620;7.548;2023-05-31T04:27:07;15.85;;;11.38;;
24483;SDS011;12643;51.620;7.548;2023-05-31T04:29:35;16.67;;;12.32;;
24483;SDS011;12643;51.620;7.548;2023-05-31T04:32:05;19.30;;;13.63;;
24483;SDS011;12643;51.620;7.548;2023-05-31T04:34:35;16.98;;;12.63;;
24483;SDS011;12643;51.620;7.548;2023-05-31T04:37:04;18.38;;;12.85;;
24483;SDS011;12643;51.620;7.548;2023-05-31T04:39:35;20.70;;;13.27;;
24483;SDS011;12643;51.620;7.548;2023-05-31T04:42:05;16.75;;;13.52;;
24483;SDS011;12643;51.620;7.548;2023-05-31T04:44:37;20.52;;;13.85;;
24483;SDS011;12643;51.620;7.548;2023-05-31T04:47:07;19.17;;;13.13;;
24483;SDS011;12643;51.620;7.548;2023-05-31T04:49:35;19.88;;;13.70;;
24483;SDS011;12643;51.620;7.548;2023-05-31T04:52:03;20.23;;;13.90;;
24483;SDS011;12643;51.620;7.548;2023-05-31T04:54:33;17.13;;;13.10;;
24483;SDS011;12643;51.620;7.548;2023-05-31T04:57:01;18.05;;;12.63;;
24483;SDS011;12643;51.620;7.548;2023-05-31T04:59:29;18.98;;;12.15;;
24483;SDS011;12643;51.620;7.548;2023-05-31T05:02:01;18.77;;;12.88;;
24483;SDS011;12643;51.620;7.548;2023-05-31T05:04:31;19.00;;;12.98;;
24483;SDS011;12643;51.620;7.548;2023-05-31T05:06:59;18.35;;;13.02;;
24483;SDS011;12643;51.620;7.548;2023-05-31T05:09:30;19.65;;;13.77;;
24483;SDS011;12643;51.620;7.548;2023-05-31T05:11:59;17.23;;;12.80;;
24483;SDS011;12643;51.620;7.548;2023-05-31T05:14:28;22.00;;;13.20;;
24483;SDS011;12643;51.620;7.548;2023-05-31T05:16:57;17.02;;;13.18;;
24483;SDS011;12643;51.620;7.548;2023-05-31T05:19:28;21.50;;;13.32;;
24483;SDS011;12643;51.620;7.548;2023-05-31T05:21:58;19.73;;;13.27;;
24483;SDS011;12643;51.620;7.548;2023-05-31T05:24:26;19.52;;;12.90;;
24483;SDS011;12643;51.620;7.548;2023-05-31T05:26:58;18.27;;;13.18;;
24483;SDS011;12643;51.620;7.548;2023-05-31T05:29:32;18.08;;;12.98;;
24483;SDS011;12643;51.620;7.548;2023-05-31T05:32:00;20.52;;;13.63;;
24483;SDS011;12643;51.620;7.548;2023-05-31T05:34:28;17.75;;;12.50;;
24483;SDS011;12643;51.620;7.548;2023-05-31T05:36:57;16.08;;;12.30;;
24483;SDS011;12643;51.620;7.548;2023-05-31T05:39:26;26.17;;;14.67;;
24483;SDS011;12643;51.620;7.548;2023-05-31T05:41:57;16.80;;;12.05;;
24483;SDS011;12643;51.620;7.548;2023-05-31T05:44:27;20.60;;;12.85;;
24483;SDS011;12643;51.620;7.548;2023-05-31T05:47:00;16.88;;;12.10;;
24483;SDS011;12643;51.620;7.548;2023-05-31T05:49:30;19.90;;;13.20;;
24483;SDS011;12643;51.620;7.548;2023-05-31T05:52:01;20.80;;;13.05;;
24483;SDS011;12643;51.620;7.548;2023-05-31T05:54:30;20.00;;;13.18;;
24483;SDS011;12643;51.620;7.548;2023-05-31T05:56:59;20.67;;;13.05;;
24483;SDS011;12643;51.620;7.548;2023-05-31T05:59:32;18.73;;;12.55;;
24483;SDS011;12643;51.620;7.548;2023-05-31T06:02:00;18.30;;;12.40;;
24483;SDS011;12643;51.620;7.548;2023-05-31T06:04:29;19.65;;;13.27;;
24483;SDS011;12643;51.620;7.548;2023-05-31T06:06:57;20.50;;;13.27;;
24483;SDS011;12643;51.620;7.548;2023-05-31T06:09:27;17.40;;;12.73;;
24483;SDS011;12643;51.620;7.548;2023-05-31T06:11:55;22.40;;;12.95;;
24483;SDS011;12643;51.620;7.548;2023-05-31T06:14:27;18.63;;;12.95;;
24483;SDS011;12643;51.620;7.548;2023-05-31T06:17:03;17.95;;;12.55;;
24483;SDS011;12643;51.620;7.548;2023-05-31T06:19:32;15.63;;;11.75;;
24483;SDS011;12643;51.620;7.548;2023-05-31T06:22:04;18.08;;;12.30;;
24483;SDS011;12643;51.620;7.548;2023-05-31T06:24:34;14.93;;;11.75;;
24483;SDS011;12643;51.620;7.548;2023-05-31T06:27:01;22.90;;;12.35;;
24483;SDS011;12643;51.620;7.548;2023-05-31T06:29:30;18.00;;;11.40;;
24483;SDS011;12643;51.620;7.548;2023-05-31T06:31:59;26.65;;;12.45;;
24483;SDS011;12643;51.620;7.548;2023-05-31T06:34:28;18.15;;;12.32;;
24483;SDS011;12643;51.620;7.548;2023-05-31T06:36:56;20.70;;;12.70;;
24483;SDS011;12643;51.620;7.548;2023-05-31T06:39:26;17.88;;;11.93;;
24483;SDS011;12643;51.620;7.548;2023-05-31T06:41:55;15.73;;;11.77;;
24483;SDS011;12643;51.620;7.548;2023-05-31T06:44:25;17.10;;;11.15;;
24483;SDS011;12643;51.620;7.548;2023-05-31T06:46:54;17.25;;;10.65;;
24483;SDS011;12643;51.620;7.548;2023-05-31T06:49:22;24.45;;;11.45;;
24483;SDS011;12643;51.620;7.548;2023-05-31T06:51:50;17.23;;;11.57;;
24483;SDS011;12643;51.620;7.548;2023-05-31T06:54:19;16.48;;;11.52;;
24483;SDS011;12643;51.620;7.548;2023-05-31T06:56:47;18.80;;;11.30;;
24483;SDS011;12643;51.620;7.548;2023-05-31T06:59:17;17.95;;;11.68;;
24483;SDS011;12643;51.620;7.548;2023-05-31T07:01:45;18.65;;;11.18;;
24483;SDS011;12643;51.620;7.548;2023-05-31T07:04:13;15.68;;;11.57;;
24483;SDS011;12643;51.620;7.548;2023-05-31T07:06:42;21.23;;;11.13;;
24483;SDS011;12643;51.620;7.548;2023-05-31T07:09:11;17.20;;;11.38;;
24483;SDS011;12643;51.620;7.548;2023-05-31T07:11:39;17.88;;;11.15;;
24483;SDS011;12643;51.620;7.548;2023-05-31T07:14:07;17.05;;;11.63;;
24483;SDS011;12643;51.620;7.548;2023-05-31T07:16:37;15.55;;;10.85;;
24483;SDS011;12643;51.620;7.548;2023-05-31T07:19:05;20.02;;;11.68;;
24483;SDS011;12643;51.620;7.548;2023-05-31T07:21:33;19.63;;;11.68;;
24483;SDS011;12643;51.620;7.548;2023-05-31T07:24:02;18.50;;;10.98;;
24483;SDS011;12643;51.620;7.548;2023-05-31T07:26:31;19.65;;;11.30;;
24483;SDS011;12643;51.620;7.548;2023-05-31T07:29:01;19.95;;;12.10;;
24483;SDS011;12643;51.620;7.548;2023-05-31T07:31:29;21.23;;;10.95;;
24483;SDS011;12643;51.620;7.548;2023-05-31T07:33:59;16.13;;;9.65;;
24483;SDS011;12643;51.620;7.548;2023-05-31T07:36:27;18.63;;;11.10;;
24483;SDS011;12643;51.620;7.548;2023-05-31T07:38:55;16.08;;;10.93;;
24483;SDS011;12643;51.620;7.548;2023-05-31T07:41:25;17.00;;;10.43;;
24483;SDS011;12643;51.620;7.548;2023-05-31T07:43:54;17.48;;;10.25;;
24483;SDS011;12643;51.620;7.548;2023-05-31T07:46:21;16.70;;;9.43;;
24483;SDS011;12643;51.620;7.548;2023-05-31T07:48:50;16.95;;;10.45;;
24483;SDS011;12643;51.620;7.548;2023-05-31T07:51:21;17.13;;;10.45;;
24483;SDS011;12643;51.620;7.548;2023-05-31T07:53:50;16.87;;;11.07;;
24483;SDS011;12643;51.620;7.548;2023-05-31T07:56:18;16.98;;;10.25;;
24483;SDS011;12643;51.620;7.548;2023-05-31T07:58:46;16.77;;;9.95;;
24483;SDS011;12643;51.620;7.548;2023-05-31T08:01:14;14.00;;;9.32;;
24483;SDS011;12643;51.620;7.548;2023-05-31T08:03:42;13.45;;;9.27;;
24483;SDS011;12643;51.620;7.548;2023-05-31T08:06:10;18.42;;;9.68;;
24483;SDS011;12643;51.620;7.548;2023-05-31T08:08:40;15.50;;;9.30;;
24483;SDS011;12643;51.620;7.548;2023-05-31T08:11:09;15.00;;;8.52;;
24483;SDS011;12643;51.620;7.548;2023-05-31T08:13:37;16.73;;;9.02;;
24483;SDS011;12643;51.620;7.548;2023-05-31T08:16:07;13.77;;;8.40;;
24483;SDS011;12643;51.620;7.548;2023-05-31T08:18:36;15.55;;;8.90;;
24483;SDS011;12643;51.620;7.548;2023-05-31T08:21:05;12.90;;;9.73;;
24483;SDS011;12643;51.620;7.548;2023-05-31T08:23:33;19.40;;;9.07;;
24483;SDS011;12643;51.620;7.548;2023-05-31T08:26:03;15.57;;;8.68;;
24483;SDS011;12643;51.620;7.548;2023-05-31T08:28:34;15.13;;;8.80;;
24483;SDS011;12643;51.620;7.548;2023-05-31T08:31:02;12.15;;;7.93;;
24483;SDS011;12643;51.620;7.548;2023-05-31T08:33:30;17.02;;;8.85;;
24483;SDS011;12643;51.620;7.548;2023-05-31T08:35:58;18.02;;;8.15;;
24483;SDS011;12643;51.620;7.548;2023-05-31T08:38:29;19.55;;;8.45;;
24483;SDS011;12643;51.620;7.548;2023-05-31T08:41:00;13.00;;;7.53;;
24483;SDS011;12643;51.620;7.548;2023-05-31T08:43:31;13.15;;;8.07;;
24483;SDS011;12643;51.620;7.548;2023-05-31T08:46:00;13.75;;;7.05;;
24483;SDS011;12643;51.620;7.548;2023-05-31T08:51:02;13.33;;;6.93;;
24483;SDS011;12643;51.620;7.548;2023-05-31T08:53:32;12.30;;;7.65;;
24483;SDS011;12643;51.620;7.548;2023-05-31T08:56:01;13.40;;;5.68;;
24483;SDS011;12643;51.620;7.548;2023-05-31T08:58:34;13.38;;;7.22;;
24483;SDS011;12643;51.620;7.548;2023-05-31T09:01:04;17.50;;;6.43;;
24483;SDS011;12643;51.620;7.548;2023-05-31T09:03:32;10.00;;;7.95;;
24483;SDS011;12643;51.620;7.548;2023-05-31T09:06:01;14.63;;;7.63;;
24483;SDS011;12643;51.620;7.548;2023-05-31T09:08:29;13.50;;;6.93;;
24483;SDS011;12643;51.620;7.548;2023-05-31T09:10:59;11.45;;;6.65;;
24483;SDS011;12643;51.620;7.548;2023-05-31T09:13:30;14.80;;;6.82;;
24483;SDS011;12643;51.620;7.548;2023-05-31T09:15:59;16.08;;;5.90;;
24483;SDS011;12643;51.620;7.548;2023-05-31T09:18:35;10.25;;;7.18;;
24483;SDS011;12643;51.620;7.548;2023-05-31T09:21:07;11.57;;;6.63;;
24483;SDS011;12643;51.620;7.548;2023-05-31T09:23:35;16.58;;;5.72;;
24483;SDS011;12643;51.620;7.548;2023-05-31T09:26:05;13.07;;;5.20;;
24483;SDS011;12643;51.620;7.548;2023-05-31T09:28:40;11.80;;;6.22;;
24483;SDS011;12643;51.620;7.548;2023-05-31T09:31:15;10.63;;;5.57;;
24483;SDS011;12643;51.620;7.548;2023-05-31T09:33:46;11.75;;;5.55;;
24483;SDS011;12643;51.620;7.548;2023-05-31T09:36:23;7.05;;;4.30;;
24483;SDS011;12643;51.620;7.548;2023-05-31T09:38:57;9.98;;;4.28;;
24483;SDS011;12643;51.620;7.548;2023-05-31T09:41:31;7.38;;;3.88;;
24483;SDS011;12643;51.620;7.548;2023-05-31T09:44:01;10.05;;;4.35;;
24483;SDS011;12643;51.620;7.548;2023-05-31T09:46:30;10.35;;;4.68;;
24483;SDS011;12643;51.620;7.548;2023-05-31T09:48:58;9.00;;;4.30;;
24483;SDS011;12643;51.620;7.548;2023-05-31T09:51:29;6.55;;;3.50;;
24483;SDS011;12643;51.620;7.548;2023-05-31T09:53:59;8.38;;;4.30;;
24483;SDS011;12643;51.620;7.548;2023-05-31T09:56:35;8.57;;;3.92;;
24483;SDS011;12643;51.620;7.548;2023-05-31T09:59:06;8.02;;;3.75;;
24483;SDS011;12643;51.620;7.548;2023-05-31T10:01:35;8.90;;;3.67;;
24483;SDS011;12643;51.620;7.548;2023-05-31T10:04:04;13.55;;;4.63;;
24483;SDS011;12643;51.620;7.548;2023-05-31T10:06:33;7.13;;;4.03;;
24483;SDS011;12643;51.620;7.548;2023-05-31T10:09:01;12.70;;;4.43;;
24483;SDS011;12643;51.620;7.548;2023-05-31T10:11:31;6.50;;;3.70;;
24483;SDS011;12643;51.620;7.548;2023-05-31T10:14:03;12.82;;;4.38;;
24483;SDS011;12643;51.620;7.548;2023-05-31T10:16:35;10.35;;;4.60;;
24483;SDS011;12643;51.620;7.548;2023-05-31T10:19:09;9.63;;;4.40;;
24483;SDS011;12643;51.620;7.548;2023-05-31T10:21:41;9.70;;;4.35;;
24483;SDS011;12643;51.620;7.548;2023-05-31T10:24:13;15.00;;;4.45;;
24483;SDS011;12643;51.620;7.548;2023-05-31T10:26:46;8.52;;;3.50;;
24483;SDS011;12643;51.620;7.548;2023-05-31T10:29:26;8.82;;;3.83;;
24483;SDS011;12643;51.620;7.548;2023-05-31T10:32:00;8.93;;;3.70;;
24483;SDS011;12643;51.620;7.548;2023-05-31T10:34:33;9.68;;;3.75;;
24483;SDS011;12643;51.620;7.548;2023-05-31T10:37:03;5.95;;;3.65;;
24483;SDS011;12643;51.620;7.548;2023-05-31T10:39:33;9.52;;;3.22;;
24483;SDS011;12643;51.620;7.548;2023-05-31T10:42:09;9.00;;;3.85;;
24483;SDS011;12643;51.620;7.548;2023-05-31T10:44:47;8.73;;;3.70;;
24483;SDS011;12643;51.620;7.548;2023-05-31T10:47:20;8.18;;;3.97;;
24483;SDS011;12643;51.620;7.548;2023-05-31T10:49:56;8.15;;;3.30;;
24483;SDS011;12643;51.620;7.548;2023-05-31T10:52:28;6.10;;;3.40;;
24483;SDS011;12643;51.620;7.548;2023-05-31T10:57:41;10.40;;;3.83;;
24483;SDS011;12643;51.620;7.548;2023-05-31T11:00:12;6.68;;;3.25;;
24483;SDS011;12643;51.620;7.548;2023-05-31T11:02:48;10.65;;;3.83;;
24483;SDS011;12643;51.620;7.548;2023-05-31T11:07:48;8.95;;;3.78;;
24483;SDS011;12643;51.620;7.548;2023-05-31T11:10:29;9.23;;;4.25;;
24483;SDS011;12643;51.620;7.548;2023-05-31T11:13:01;6.35;;;2.92;;
24483;SDS011;12643;51.620;7.548;2023-05-31T11:15:42;8.85;;;3.90;;
24483;SDS011;12643;51.620;7.548;2023-05-31T11:18:14;11.65;;;3.65;;
24483;SDS011;12643;51.620;7.548;2023-05-31T11:20:48;10.13;;;3.85;;
24483;SDS011;12643;51.620;7.548;2023-05-31T11:23:23;8.60;;;3.30;;
24483;SDS011;12643;51.620;7.548;2023-05-31T11:26:08;7.47;;;3.20;;
24483;SDS011;12643;51.620;7.548;2023-05-31T11:28:50;11.45;;;3.63;;
24483;SDS011;12643;51.620;7.548;2023-05-31T11:34:25;8.65;;;3.10;;
24483;SDS011;12643;51.620;7.548;2023-05-31T11:37:00;16.35;;;4.05;;
24483;SDS011;12643;51.620;7.548;2023-05-31T11:39:30;7.87;;;3.37;;
24483;SDS011;12643;51.620;7.548;2023-05-31T11:42:02;7.15;;;3.65;;
24483;SDS011;12643;51.620;7.548;2023-05-31T11:44:33;8.65;;;3.08;;
24483;SDS011;12643;51.620;7.548;2023-05-31T11:47:09;12.40;;;3.65;;
24483;SDS011;12643;51.620;7.548;2023-05-31T11:50:09;8.95;;;3.28;;
24483;SDS011;12643;51.620;7.548;2023-05-31T11:52:39;5.80;;;3.20;;
24483;SDS011;12643;51.620;7.548;2023-05-31T11:55:07;10.00;;;3.40;;
24483;SDS011;12643;51.620;7.548;2023-05-31T11:57:40;7.05;;;3.53;;
24483;SDS011;12643;51.620;7.548;2023-05-31T12:00:10;7.97;;;3.05;;
24483;SDS011;12643;51.620;7.548;2023-05-31T12:02:43;8.82;;;3.40;;
24483;SDS011;12643;51.620;7.548;2023-05-31T12:05:11;7.93;;;3.13;;
24483;SDS011;12643;51.620;7.548;2023-05-31T12:07:44;5.20;;;3.05;;
24483;SDS011;12643;51.620;7.548;2023-05-31T12:10:16;13.82;;;3.25;;
24483;SDS011;12643;51.620;7.548;2023-05-31T12:12:45;9.88;;;3.58;;
24483;SDS011;12643;51.620;7.548;2023-05-31T12:15:14;9.88;;;3.55;;
24483;SDS011;12643;51.620;7.548;2023-05-31T12:17:44;6.57;;;3.05;;
24483;SDS011;12643;51.620;7.548;2023-05-31T12:20:28;6.60;;;3.10;;
24483;SDS011;12643;51.620;7.548;2023-05-31T12:23:15;5.65;;;2.95;;
24483;SDS011;12643;51.620;7.548;2023-05-31T12:25:49;7.68;;;3.45;;
24483;SDS011;12643;51.620;7.548;2023-05-31T12:28:18;7.32;;;3.08;;
24483;SDS011;12643;51.620;7.548;2023-05-31T12:30:52;11.30;;;3.50;;
24483;SDS011;12643;51.620;7.548;2023-05-31T12:33:23;7.70;;;2.90;;
24483;SDS011;12643;51.620;7.548;2023-05-31T12:35:56;9.07;;;3.40;;
24483;SDS011;12643;51.620;7.548;2023-05-31T12:38:26;7.93;;;3.45;;
24483;SDS011;12643;51.620;7.548;2023-05-31T12:40:57;5.55;;;3.35;;
24483;SDS011;12643;51.620;7.548;2023-05-31T12:43:28;10.80;;;3.45;;
24483;SDS011;12643;51.620;7.548;2023-05-31T12:45:57;5.35;;;2.70;;
24483;SDS011;12643;51.620;7.548;2023-05-31T12:48:27;3.10;;;2.40;;
24483;SDS011;12643;51.620;7.548;2023-05-31T12:50:57;8.43;;;3.13;;
24483;SDS011;12643;51.620;7.548;2023-05-31T12:53:25;5.60;;;3.15;;
24483;SDS011;12643;51.620;7.548;2023-05-31T12:55:53;10.35;;;3.13;;
24483;SDS011;12643;51.620;7.548;2023-05-31T12:58:21;8.20;;;3.08;;
24483;SDS011;12643;51.620;7.548;2023-05-31T13:00:49;5.90;;;3.30;;
24483;SDS011;12643;51.620;7.548;2023-05-31T13:03:17;5.22;;;2.97;;
24483;SDS011;12643;51.620;7.548;2023-05-31T13:05:47;6.07;;;3.28;;
24483;SDS011;12643;51.620;7.548;2023-05-31T13:08:15;5.55;;;3.00;;
24483;SDS011;12643;51.620;7.548;2023-05-31T13:10:43;10.13;;;2.63;;
24483;SDS011;12643;51.620;7.548;2023-05-31T13:13:11;9.23;;;2.90;;
24483;SDS011;12643;51.620;7.548;2023-05-31T13:15:39;10.82;;;2.97;;
24483;SDS011;12643;51.620;7.548;2023-05-31T13:18:07;7.25;;;2.95;;
24483;SDS011;12643;51.620;7.548;2023-05-31T13:21:03;7.07;;;3.10;;
24483;SDS011;12643;51.620;7.548;2023-05-31T13:23:31;8.48;;;4.00;;
24483;SDS011;12643;51.620;7.548;2023-05-31T13:25:59;4.38;;;2.78;;
24483;SDS011;12643;51.620;7.548;2023-05-31T13:28:31;6.90;;;3.08;;
24483;SDS011;12643;51.620;7.548;2023-05-31T13:31:00;5.90;;;2.53;;
24483;SDS011;12643;51.620;7.548;2023-05-31T13:33:35;6.10;;;2.45;;
24483;SDS011;12643;51.620;7.548;2023-05-31T13:36:11;5.45;;;3.00;;
24483;SDS011;12643;51.620;7.548;2023-05-31T13:38:44;7.10;;;2.72;;
24483;SDS011;12643;51.620;7.548;2023-05-31T13:41:22;8.60;;;2.97;;
24483;SDS011;12643;51.620;7.548;2023-05-31T13:43:52;7.93;;;3.25;;
24483;SDS011;12643;51.620;7.548;2023-05-31T13:46:20;11.73;;;3.05;;
24483;SDS011;12643;51.620;7.548;2023-05-31T13:48:56;8.57;;;3.05;;
24483;SDS011;12643;51.620;7.548;2023-05-31T13:51:27;8.23;;;2.90;;
24483;SDS011;12643;51.620;7.548;2023-05-31T13:53:56;6.82;;;2.80;;
24483;SDS011;12643;51.620;7.548;2023-05-31T13:56:25;5.75;;;2.85;;
24483;SDS011;12643;51.620;7.548;2023-05-31T13:58:53;6.78;;;2.90;;
24483;SDS011;12643;51.620;7.548;2023-05-31T14:01:22;12.25;;;3.00;;
24483;SDS011;12643;51.620;7.548;2023-05-31T14:03:56;8.07;;;3.17;;
24483;SDS011;12643;51.620;7.548;2023-05-31T14:06:27;6.47;;;3.03;;
24483;SDS011;12643;51.620;7.548;2023-05-31T14:08:58;9.73;;;2.92;;
24483;SDS011;12643;51.620;7.548;2023-05-31T14:11:26;7.88;;;2.88;;
24483;SDS011;12643;51.620;7.548;2023-05-31T14:13:55;6.18;;;2.83;;
24483;SDS011;12643;51.620;7.548;2023-05-31T14:16:23;13.40;;;3.05;;
24483;SDS011;12643;51.620;7.548;2023-05-31T14:18:54;9.45;;;3.45;;
24483;SDS011;12643;51.620;7.548;2023-05-31T14:21:22;7.00;;;2.50;;
24483;SDS011;12643;51.620;7.548;2023-05-31T14:23:51;10.18;;;2.60;;
24483;SDS011;12643;51.620;7.548;2023-05-31T14:26:19;8.15;;;3.17;;
24483;SDS011;12643;51.620;7.548;2023-05-31T14:28:47;5.97;;;2.65;;
24483;SDS011;12643;51.620;7.548;2023-05-31T14:31:16;7.50;;;3.10;;
24483;SDS011;12643;51.620;7.548;2023-05-31T14:33:44;5.05;;;3.08;;
24483;SDS011;12643;51.620;7.548;2023-05-31T14:36:12;7.63;;;2.80;;
24483;SDS011;12643;51.620;7.548;2023-05-31T14:38:43;4.47;;;2.97;;
24483;SDS011;12643;51.620;7.548;2023-05-31T14:41:14;6.45;;;2.63;;
24483;SDS011;12643;51.620;7.548;2023-05-31T14:43:42;6.85;;;3.22;;
24483;SDS011;12643;51.620;7.548;2023-05-31T14:46:09;8.40;;;2.83;;
24483;SDS011;12643;51.620;7.548;2023-05-31T14:48:37;5.30;;;3.20;;
24483;SDS011;12643;51.620;7.548;2023-05-31T14:51:06;7.07;;;3.20;;
24483;SDS011;12643;51.620;7.548;2023-05-31T14:53:35;7.85;;;3.10;;
24483;SDS011;12643;51.620;7.548;2023-05-31T14:56:03;5.70;;;2.97;;
24483;SDS011;12643;51.620;7.548;2023-05-31T14:58:33;9.00;;;3.17;;
24483;SDS011;12643;51.620;7.548;2023-05-31T15:01:01;7.22;;;2.92;;
24483;SDS011;12643;51.620;7.548;2023-05-31T15:03:30;7.78;;;3.10;;
24483;SDS011;12643;51.620;7.548;2023-05-31T15:05:58;3.78;;;2.67;;
24483;SDS011;12643;51.620;7.548;2023-05-31T15:08:29;4.38;;;2.83;;